createdAt,value
2018-04-18T00:00:31.944Z,95.60
2018-04-18T00:05:30.752Z,95.50
2018-04-18T00:07:58.854Z,95.90
2018-04-18T00:10:27.726Z,96.30
2018-04-18T00:12:55.811Z,96.20
2018-04-18T00:15:23.952Z,96.30
2018-04-18T00:17:52.032Z,96.60
2018-04-18T00:20:20.104Z,96.90
2018-04-18T00:22:48.248Z,97.10
2018-04-18T00:25:16.345Z,97.00
2018-04-18T00:27:44.500Z,97.10
2018-04-18T00:30:12.591Z,97.20
2018-04-18T00:32:40.708Z,97.10
2018-04-18T00:35:08.865Z,96.40
2018-04-18T00:37:36.975Z,96.50
2018-04-18T00:40:05.068Z,96.70
2018-04-18T00:42:33.981Z,97.10
2018-04-18T00:45:02.852Z,97.00
2018-04-18T00:47:30.979Z,96.90
2018-04-18T00:49:59.139Z,97.10
2018-04-18T00:52:27.225Z,96.90
2018-04-18T00:54:55.385Z,97.00
2018-04-18T00:57:23.525Z,97.30
2018-04-18T00:59:51.627Z,97.30
2018-04-18T01:02:19.746Z,97.40
2018-04-18T01:04:47.873Z,97.50
2018-04-18T01:07:16.550Z,97.70
2018-04-18T01:09:44.644Z,97.70
2018-04-18T01:12:13.525Z,97.80
2018-04-18T01:14:41.643Z,97.80
2018-04-18T01:17:10.528Z,97.90
2018-04-18T01:19:38.611Z,97.80
2018-04-18T01:22:06.732Z,98.00
2018-04-18T01:24:34.826Z,98.20
2018-04-18T01:27:02.934Z,98.20
2018-04-18T01:29:31.047Z,98.20
2018-04-18T01:31:59.133Z,98.20
2018-04-18T01:34:27.237Z,98.20
2018-04-18T01:36:56.102Z,98.20
2018-04-18T01:39:24.235Z,98.20
2018-04-18T01:41:52.352Z,98.40
2018-04-18T01:44:20.431Z,98.30
2018-04-18T01:46:48.540Z,98.10
2018-04-18T01:49:23.432Z,98.20
2018-04-18T01:51:51.563Z,98.20
2018-04-18T01:54:19.663Z,98.20
2018-04-18T01:56:47.779Z,98.20
2018-04-18T01:59:16.667Z,98.20
2018-04-18T02:01:44.784Z,98.20
2018-04-18T02:04:12.933Z,98.50
2018-04-18T02:06:41.020Z,98.80
2018-04-18T02:09:09.103Z,98.80
2018-04-18T02:11:37.205Z,99.00
2018-04-18T02:14:06.064Z,98.90
2018-04-18T02:16:34.240Z,98.90
2018-04-18T02:19:02.368Z,99.00
2018-04-18T02:21:30.459Z,99.00
2018-04-18T02:23:59.326Z,99.10
2018-04-18T02:26:27.424Z,99.10
2018-04-18T02:28:55.575Z,99.20
2018-04-18T02:31:23.669Z,99.20
2018-04-18T02:33:51.799Z,99.20
2018-04-18T02:36:19.904Z,99.20
2018-04-18T02:38:48.072Z,99.20
2018-04-18T02:41:16.184Z,99.20
2018-04-18T02:43:44.313Z,99.60
2018-04-18T02:46:12.420Z,98.80
2018-04-18T02:48:40.508Z,98.60
2018-04-18T02:51:09.400Z,98.70
2018-04-18T02:53:37.503Z,98.70
2018-04-18T02:56:06.393Z,98.90
2018-04-18T02:58:34.500Z,98.80
2018-04-18T03:01:02.600Z,99.00
2018-04-18T03:03:30.731Z,99.10
2018-04-18T03:05:58.841Z,99.10
2018-04-18T03:08:27.707Z,99.20
2018-04-18T03:10:55.799Z,99.20
2018-04-18T03:13:23.896Z,99.30
2018-04-18T03:15:52.034Z,99.40
2018-04-18T03:18:20.112Z,99.30
2018-04-18T03:20:48.271Z,99.30
2018-04-18T03:23:17.123Z,99.40
2018-04-18T03:25:45.197Z,99.00
2018-04-18T03:28:13.309Z,99.30
2018-04-18T03:30:41.439Z,99.30
2018-04-18T03:33:10.302Z,99.40
2018-04-18T03:35:38.465Z,99.40
2018-04-18T03:38:06.610Z,99.50
2018-04-18T03:40:34.696Z,99.60
2018-04-18T03:43:03.562Z,99.50
2018-04-18T03:45:31.696Z,99.50
2018-04-18T03:47:59.852Z,99.60
2018-04-18T03:50:27.990Z,99.40
2018-04-18T03:52:56.084Z,99.30
2018-04-18T03:55:24.187Z,99.50
2018-04-18T03:57:52.309Z,99.70
2018-04-18T04:00:20.395Z,99.60
2018-04-18T04:02:49.252Z,99.20
2018-04-18T04:05:17.375Z,99.20
2018-04-18T04:07:45.467Z,99.00
2018-04-18T04:10:14.368Z,99.30
2018-04-18T04:12:43.281Z,99.50
2018-04-18T04:15:11.412Z,99.50
2018-04-18T04:20:51.769Z,99.70
2018-04-18T04:23:31.697Z,99.70
2018-04-18T04:25:59.748Z,99.80
2018-04-18T04:28:27.848Z,99.80
2018-04-18T04:30:56.053Z,99.90
2018-04-18T04:33:24.142Z,99.90
2018-04-18T04:35:53.088Z,99.90
2018-04-18T04:38:21.203Z,99.90
2018-04-18T04:40:49.308Z,99.90
2018-04-18T04:43:17.454Z,99.90
2018-04-18T04:45:45.608Z,99.90
2018-04-18T04:48:14.492Z,99.90
2018-04-18T04:50:44.149Z,99.90
2018-04-18T04:53:13.000Z,99.90
2018-04-18T04:55:41.108Z,99.90
2018-04-18T04:58:09.214Z,99.90
2018-04-18T05:00:38.103Z,98.90
2018-04-18T05:03:06.276Z,98.90
2018-04-18T05:05:34.372Z,98.70
2018-04-18T05:08:03.246Z,97.90
2018-04-18T05:10:31.407Z,97.70
2018-04-18T05:12:59.540Z,96.50
2018-04-18T05:15:27.649Z,96.20
2018-04-18T05:17:56.543Z,93.90
2018-04-18T05:20:25.451Z,92.90
2018-04-18T05:22:55.220Z,93.00
2018-04-18T05:25:23.304Z,92.60
2018-04-18T05:27:51.445Z,91.00
2018-04-18T05:30:20.296Z,89.70
2018-04-18T05:32:48.411Z,89.70
2018-04-18T05:35:16.526Z,88.90
2018-04-18T05:37:44.655Z,87.10
2018-04-18T05:40:12.772Z,85.00
2018-04-18T05:42:40.908Z,83.10
2018-04-18T05:45:09.031Z,82.40
2018-04-18T05:47:37.101Z,82.40
2018-04-18T05:50:05.206Z,82.00
2018-04-18T05:52:33.355Z,82.10
2018-04-18T05:55:01.477Z,79.60
2018-04-18T05:57:29.610Z,78.00
2018-04-18T05:59:57.743Z,76.10
2018-04-18T06:02:25.859Z,73.90
2018-04-18T06:04:54.773Z,71.90
2018-04-18T06:07:22.917Z,71.90
2018-04-18T06:09:51.062Z,70.80
2018-04-18T06:12:19.191Z,71.40
2018-04-18T06:14:47.345Z,69.00
2018-04-18T06:17:15.425Z,69.20
2018-04-18T06:19:44.405Z,65.20
2018-04-18T06:22:13.322Z,62.20
2018-04-18T06:24:41.417Z,62.20
2018-04-18T06:27:09.522Z,60.50
2018-04-18T06:29:37.639Z,58.60
2018-04-18T06:32:06.486Z,58.80
2018-04-18T06:34:34.670Z,58.30
2018-04-18T06:37:02.775Z,57.30
2018-04-18T06:39:30.883Z,57.50
2018-04-18T06:41:58.954Z,57.20
2018-04-18T06:44:27.117Z,57.50
2018-04-18T06:46:55.215Z,57.50
2018-04-18T06:49:23.368Z,54.90
2018-04-18T06:51:51.526Z,52.60
2018-04-18T06:54:19.624Z,52.70
2018-04-18T06:56:48.450Z,53.10
2018-04-18T06:59:16.527Z,53.10
2018-04-18T07:01:44.692Z,52.90
2018-04-18T07:04:13.606Z,51.60
2018-04-18T07:06:41.671Z,51.60
2018-04-18T07:09:10.593Z,51.80
2018-04-18T07:11:39.459Z,53.10
2018-04-18T07:14:07.538Z,53.10
2018-04-18T07:16:35.648Z,54.50
2018-04-18T07:19:04.524Z,54.80
2018-04-18T07:21:32.618Z,54.80
2018-04-18T07:24:00.713Z,52.60
2018-04-18T07:26:29.584Z,50.60
2018-04-18T07:28:57.688Z,50.50
2018-04-18T07:31:25.831Z,53.60
2018-04-18T07:33:53.935Z,52.90
2018-04-18T07:36:22.064Z,52.50
2018-04-18T07:38:50.938Z,53.50
2018-04-18T07:41:19.064Z,53.50
2018-04-18T07:43:47.945Z,50.70
2018-04-18T07:46:16.051Z,50.50
2018-04-18T07:48:44.929Z,48.30
2018-04-18T07:51:13.087Z,48.20
2018-04-18T07:53:41.205Z,49.30
2018-04-18T07:56:09.342Z,46.50
2018-04-18T07:58:37.449Z,47.20
2018-04-18T08:01:05.556Z,46.00
2018-04-18T08:03:33.705Z,50.00
2018-04-18T08:06:01.790Z,50.40
2018-04-18T08:08:29.894Z,48.30
2018-04-18T08:10:58.034Z,49.60
2018-04-18T08:13:26.126Z,49.70
2018-04-18T08:15:54.264Z,51.70
2018-04-18T08:18:22.367Z,52.20
2018-04-18T08:20:51.252Z,50.00
2018-04-18T08:23:20.121Z,48.20
2018-04-18T08:25:48.244Z,48.10
2018-04-18T08:28:16.329Z,48.80
2018-04-18T08:30:44.427Z,46.60
2018-04-18T08:33:12.533Z,47.40
2018-04-18T08:35:48.052Z,44.00
2018-04-18T08:38:16.211Z,38.90
2018-04-18T08:40:44.328Z,37.70
2018-04-18T08:43:12.438Z,40.80
2018-04-18T08:45:41.307Z,40.20
2018-04-18T08:48:09.406Z,40.20
2018-04-18T08:50:37.488Z,41.30
2018-04-18T08:53:05.612Z,42.90
2018-04-18T08:55:33.726Z,42.40
2018-04-18T08:58:01.846Z,40.20
2018-04-18T09:00:29.945Z,44.20
2018-04-18T09:02:58.866Z,42.10
2018-04-18T09:05:26.995Z,42.10
2018-04-18T09:07:55.087Z,38.80
2018-04-18T09:10:23.155Z,38.10
2018-04-18T09:12:51.227Z,37.80
2018-04-18T09:15:19.336Z,37.90
2018-04-18T09:17:47.495Z,39.00
2018-04-18T09:20:15.575Z,40.10
2018-04-18T09:22:43.675Z,38.40
2018-04-18T09:25:11.770Z,39.00
2018-04-18T09:27:39.938Z,38.60
2018-04-18T09:30:08.034Z,41.70
2018-04-18T09:32:36.110Z,41.70
2018-04-18T09:35:04.210Z,39.80
2018-04-18T09:37:32.319Z,40.70
2018-04-18T09:40:00.431Z,38.20
2018-04-18T09:42:29.296Z,35.90
2018-04-18T09:44:57.375Z,35.80
2018-04-18T09:47:26.583Z,34.40
2018-04-18T09:49:54.668Z,34.90
2018-04-18T09:52:22.769Z,34.90
2018-04-18T09:54:51.655Z,37.80
2018-04-18T09:57:19.733Z,37.70
2018-04-18T09:59:47.833Z,35.80
2018-04-18T10:02:17.934Z,37.50
2018-04-18T10:04:46.029Z,38.50
2018-04-18T10:07:14.169Z,39.50
2018-04-18T10:09:43.061Z,37.30
2018-04-18T10:12:11.168Z,37.20
2018-04-18T10:14:40.031Z,38.60
2018-04-18T10:17:08.146Z,38.50
2018-04-18T10:19:37.013Z,37.70
2018-04-18T10:22:05.096Z,37.60
2018-04-18T10:24:33.197Z,39.30
2018-04-18T10:27:01.302Z,39.90
2018-04-18T10:29:29.392Z,39.10
2018-04-18T10:31:58.234Z,39.60
2018-04-18T10:34:27.077Z,38.90
2018-04-18T10:36:55.139Z,39.40
2018-04-18T10:39:23.268Z,40.00
2018-04-18T10:41:51.387Z,40.20
2018-04-18T10:44:19.463Z,37.80
2018-04-18T10:46:47.547Z,40.40
2018-04-18T10:49:15.616Z,38.20
2018-04-18T10:51:43.687Z,39.70
2018-04-18T10:54:12.546Z,38.80
2018-04-18T10:56:40.668Z,38.70
2018-04-18T10:59:09.579Z,37.30
2018-04-18T11:01:38.447Z,36.50
2018-04-18T11:04:06.603Z,36.30
2018-04-18T11:06:35.438Z,37.40
2018-04-18T11:09:03.602Z,35.90
2018-04-18T11:11:31.719Z,36.90
2018-04-18T11:13:59.843Z,36.60
2018-04-18T11:16:27.907Z,36.30
2018-04-18T11:18:56.763Z,35.00
2018-04-18T11:21:24.853Z,35.00
2018-04-18T11:23:52.920Z,34.20
2018-04-18T11:26:21.012Z,30.50
2018-04-18T11:28:49.099Z,34.10
2018-04-18T11:31:17.464Z,33.80
2018-04-18T11:33:46.295Z,35.40
2018-04-18T11:36:14.389Z,35.30
2018-04-18T11:38:42.490Z,33.50
2018-04-18T11:41:10.572Z,29.40
2018-04-18T11:43:38.651Z,30.40
2018-04-18T11:46:06.732Z,29.70
2018-04-18T11:48:34.846Z,32.00
2018-04-18T11:51:03.730Z,34.60
2018-04-18T11:53:31.830Z,34.50
2018-04-18T11:56:00.690Z,34.00
2018-04-18T11:58:28.791Z,33.90
2018-04-18T12:00:56.900Z,31.50
2018-04-18T12:03:24.980Z,32.60
2018-04-18T12:05:53.823Z,35.20
2018-04-18T12:08:21.929Z,35.20
2018-04-18T12:10:50.036Z,34.40
2018-04-18T12:13:18.103Z,30.10
2018-04-18T12:15:46.196Z,31.00
2018-04-18T12:18:14.287Z,33.90
2018-04-18T12:20:42.449Z,34.80
2018-04-18T12:23:11.288Z,32.00
2018-04-18T12:25:39.358Z,33.00
2018-04-18T12:28:07.440Z,31.80
2018-04-18T12:30:35.546Z,32.10
2018-04-18T12:33:03.612Z,30.00
2018-04-18T12:35:31.714Z,30.50
2018-04-18T12:37:59.806Z,29.90
2018-04-18T12:40:27.881Z,30.40
2018-04-18T12:42:56.004Z,31.20
2018-04-18T12:45:24.041Z,31.50
2018-04-18T12:47:52.113Z,30.50
2018-04-18T12:50:20.215Z,30.00
2018-04-18T12:52:48.364Z,30.30
2018-04-18T12:55:16.428Z,29.00
2018-04-18T12:57:44.538Z,29.70
2018-04-18T13:00:12.617Z,26.80
2018-04-18T13:02:40.682Z,27.00
2018-04-18T13:05:08.768Z,26.70
2018-04-18T13:07:36.947Z,27.50
2018-04-18T13:10:05.058Z,25.90
2018-04-18T13:12:33.151Z,26.80
2018-04-18T13:15:01.258Z,27.70
2018-04-18T13:17:29.367Z,28.10
2018-04-18T13:19:58.238Z,28.20
2018-04-18T13:22:26.391Z,28.20
2018-04-18T13:24:54.498Z,28.40
2018-04-18T13:27:22.593Z,28.00
2018-04-18T13:29:50.656Z,27.60
2018-04-18T13:32:18.801Z,28.20
2018-04-18T13:34:46.875Z,27.80
2018-04-18T13:37:15.766Z,26.60
2018-04-18T13:39:43.835Z,26.50
2018-04-18T13:42:11.937Z,25.70
2018-04-18T13:44:40.055Z,26.20
2018-04-18T13:47:08.138Z,27.10
2018-04-18T13:49:36.253Z,24.80
2018-04-18T13:52:04.381Z,26.20
2018-04-18T13:54:33.249Z,26.90
2018-04-18T13:57:01.344Z,26.50
2018-04-18T13:59:29.444Z,27.20
2018-04-18T14:01:57.528Z,25.30
2018-04-18T14:04:25.644Z,26.50
2018-04-18T14:06:54.501Z,26.20
2018-04-18T14:09:22.648Z,26.20
2018-04-18T14:11:50.747Z,26.10
2018-04-18T14:14:18.860Z,27.30
2018-04-18T14:16:46.967Z,27.50
2018-04-18T14:19:15.037Z,27.20
2018-04-18T14:21:43.156Z,27.10
2018-04-18T14:24:11.225Z,27.10
2018-04-18T14:26:40.096Z,26.90
2018-04-18T14:29:08.224Z,26.90
2018-04-18T14:31:37.077Z,29.30
2018-04-18T14:34:05.230Z,29.40
2018-04-18T14:36:33.340Z,29.80
2018-04-18T14:39:01.423Z,31.20
2018-04-18T14:41:29.522Z,31.50
2018-04-18T14:43:57.621Z,32.40
2018-04-18T14:46:25.712Z,32.40
2018-04-18T14:48:53.814Z,33.00
2018-04-18T14:51:21.903Z,35.00
2018-04-18T14:53:50.748Z,35.70
2018-04-18T14:56:18.853Z,34.40
2018-04-18T14:58:46.929Z,34.80
2018-04-18T15:01:15.034Z,35.80
2018-04-18T15:03:43.136Z,35.30
2018-04-18T15:06:11.999Z,35.90
2018-04-18T15:08:40.089Z,35.80
2018-04-18T15:11:08.188Z,35.50
2018-04-18T15:13:37.852Z,36.30
2018-04-18T15:16:06.674Z,35.20
2018-04-18T15:18:34.785Z,35.20
2018-04-18T15:21:02.910Z,35.80
2018-04-18T15:23:31.019Z,36.00
2018-04-18T15:25:59.175Z,33.80
2018-04-18T15:28:28.083Z,35.00
2018-04-18T15:30:56.219Z,35.00
2018-04-18T15:33:24.330Z,34.10
2018-04-18T15:35:52.434Z,34.60
2018-04-18T15:38:21.334Z,34.80
2018-04-18T15:40:49.430Z,34.10
2018-04-18T15:43:18.291Z,35.50
2018-04-18T15:45:46.451Z,35.50
2018-04-18T15:48:14.544Z,35.30
2018-04-18T15:50:42.672Z,35.60
2018-04-18T15:53:12.338Z,34.70
2018-04-18T15:55:40.427Z,34.70
2018-04-18T15:58:08.519Z,35.30
2018-04-18T16:00:36.689Z,35.00
2018-04-18T16:03:04.777Z,35.60
2018-04-18T16:05:32.935Z,35.50
2018-04-18T16:08:01.779Z,33.60
2018-04-18T16:10:29.853Z,33.50
2018-04-18T16:12:57.988Z,35.00
2018-04-18T16:15:26.135Z,33.80
2018-04-18T16:17:54.206Z,33.00
2018-04-18T16:20:22.300Z,32.90
2018-04-18T16:22:50.413Z,32.50
2018-04-18T16:25:18.529Z,32.60
2018-04-18T16:27:47.401Z,33.50
2018-04-18T16:30:27.239Z,33.40
2018-04-18T16:32:55.308Z,32.80
2018-04-18T16:35:23.408Z,33.10
2018-04-18T16:37:51.504Z,34.00
2018-04-18T16:40:19.608Z,34.40
2018-04-18T16:42:47.750Z,33.70
2018-04-18T16:45:15.844Z,34.00
2018-04-18T16:47:43.968Z,34.20
2018-04-18T16:50:12.083Z,34.30
2018-04-18T16:52:40.962Z,34.30
2018-04-18T16:55:09.035Z,34.30
2018-04-18T16:57:37.168Z,33.90
2018-04-18T17:00:05.255Z,33.90
2018-04-18T17:02:33.373Z,34.50
2018-04-18T17:05:01.452Z,34.60
2018-04-18T17:07:29.519Z,35.20
2018-04-18T17:09:57.640Z,35.80
2018-04-18T17:12:25.743Z,34.90
2018-04-18T17:14:54.599Z,35.10
2018-04-18T17:17:22.695Z,35.10
2018-04-18T17:19:50.789Z,35.70
2018-04-18T17:22:18.877Z,35.60
2018-04-18T17:24:46.947Z,36.30
2018-04-18T17:27:15.099Z,37.00
2018-04-18T17:29:43.202Z,36.70
2018-04-18T17:32:11.335Z,36.40
2018-04-18T17:34:39.441Z,36.50
2018-04-18T17:37:08.308Z,35.00
2018-04-18T17:39:36.410Z,35.00
2018-04-18T17:42:04.529Z,34.00
2018-04-18T17:44:32.630Z,32.80
2018-04-18T17:47:00.716Z,32.50
2018-04-18T17:49:28.865Z,32.00
2018-04-18T17:51:57.731Z,32.30
2018-04-18T17:54:25.842Z,32.10
2018-04-18T17:56:54.709Z,32.90
2018-04-18T17:59:22.848Z,32.80
2018-04-18T18:01:51.737Z,34.20
2018-04-18T18:04:20.635Z,34.20
2018-04-18T18:06:49.482Z,34.80
2018-04-18T18:09:17.583Z,34.70
2018-04-18T18:11:45.683Z,35.70
2018-04-18T18:14:13.806Z,35.80
2018-04-18T18:16:42.716Z,35.90
2018-04-18T18:19:11.739Z,35.40
2018-04-18T18:21:39.946Z,35.30
2018-04-18T18:24:08.096Z,35.50
2018-04-18T18:26:36.954Z,35.90
2018-04-18T18:29:05.098Z,35.90
2018-04-18T18:31:33.225Z,36.60
2018-04-18T18:34:01.404Z,36.70
2018-04-18T18:36:29.485Z,37.30
2018-04-18T18:38:57.580Z,37.30
2018-04-18T18:41:25.686Z,37.80
2018-04-18T18:43:53.838Z,38.30
2018-04-18T18:46:21.991Z,38.60
2018-04-18T18:48:50.839Z,39.50
2018-04-18T18:51:19.680Z,39.40
2018-04-18T18:53:48.689Z,40.10
2018-04-18T18:56:16.985Z,40.00
2018-04-18T18:58:45.046Z,40.20
2018-04-18T19:01:13.185Z,40.40
2018-04-18T19:03:41.299Z,40.40
2018-04-18T19:06:09.414Z,41.00
2018-04-18T19:08:37.507Z,41.10
2018-04-18T19:11:06.400Z,42.80
2018-04-18T19:13:35.255Z,43.70
2018-04-18T19:16:03.352Z,43.70
2018-04-18T19:18:31.457Z,44.60
2018-04-18T19:21:01.083Z,47.00
2018-04-18T19:23:29.221Z,47.00
2018-04-18T19:25:57.351Z,47.90
2018-04-18T19:28:27.015Z,50.00
2018-04-18T19:30:55.993Z,51.50
2018-04-18T19:33:24.984Z,50.20
2018-04-18T19:35:53.576Z,50.10
2018-04-18T19:38:21.845Z,51.50
2018-04-18T19:40:49.952Z,53.40
2018-04-18T19:43:18.128Z,55.50
2018-04-18T19:45:46.231Z,57.10
2018-04-18T19:48:15.197Z,57.90
2018-04-18T19:50:43.299Z,57.90
2018-04-18T19:53:11.470Z,57.40
2018-04-18T19:55:39.495Z,58.60
2018-04-18T19:58:08.473Z,60.70
2018-04-18T20:00:36.603Z,60.60
2018-04-18T20:03:04.727Z,61.70
2018-04-18T20:05:32.831Z,63.30
2018-04-18T20:08:00.937Z,65.30
2018-04-18T20:10:29.999Z,65.70
2018-04-18T20:12:58.080Z,65.70
2018-04-18T20:15:26.223Z,65.50
2018-04-18T20:17:55.174Z,67.70
2018-04-18T20:20:23.332Z,67.60
2018-04-18T20:22:52.183Z,69.70
2018-04-18T20:25:20.326Z,69.60
2018-04-18T20:27:48.435Z,69.10
2018-04-18T20:30:16.579Z,71.10
2018-04-18T20:32:45.445Z,71.90
2018-04-18T20:35:13.520Z,71.90
2018-04-18T20:37:41.648Z,71.60
2018-04-18T20:40:10.503Z,73.60
2018-04-18T20:42:38.682Z,73.60
2018-04-18T20:45:07.091Z,74.10
2018-04-18T20:47:35.180Z,73.90
2018-04-18T20:50:03.300Z,74.10
2018-04-18T20:52:32.160Z,75.50
2018-04-18T20:55:00.281Z,75.50
2018-04-18T20:57:28.372Z,76.60
2018-04-18T20:59:57.242Z,75.90
2018-04-18T21:02:25.356Z,75.80
2018-04-18T21:04:54.220Z,74.40
2018-04-18T21:07:22.307Z,74.40
2018-04-18T21:09:50.404Z,75.10
2018-04-18T21:12:18.530Z,76.30
2018-04-18T21:14:46.633Z,77.20
2018-04-18T21:17:14.700Z,78.00
2018-04-18T21:19:42.789Z,77.30
2018-04-18T21:22:10.909Z,78.40
2018-04-18T21:24:38.983Z,78.00
2018-04-18T21:27:07.099Z,77.80
2018-04-18T21:29:35.214Z,78.20
2018-04-18T21:32:04.107Z,78.40
2018-04-18T21:34:32.950Z,78.30
2018-04-18T21:37:01.056Z,78.50
2018-04-18T21:39:29.207Z,79.40
2018-04-18T21:41:57.365Z,79.50
2018-04-18T21:44:26.236Z,80.80
2018-04-18T21:46:54.372Z,80.80
2018-04-18T21:49:22.488Z,80.60
2018-04-18T21:51:50.580Z,82.00
2018-04-18T21:54:18.672Z,82.20
2018-04-18T21:56:46.777Z,82.00
2018-04-18T21:59:15.635Z,82.70
2018-04-18T22:01:43.787Z,82.70
2018-04-18T22:04:12.700Z,83.80
2018-04-18T22:06:40.796Z,83.70
2018-04-18T22:09:08.898Z,84.10
2018-04-18T22:11:37.062Z,84.00
2018-04-18T22:14:05.144Z,84.80
2018-04-18T22:16:33.335Z,85.00
2018-04-18T22:19:01.470Z,84.70
2018-04-18T22:21:29.606Z,83.80
2018-04-18T22:23:57.862Z,83.80
2018-04-18T22:26:26.758Z,83.90
2018-04-18T22:28:54.886Z,83.80
2018-04-18T22:31:23.344Z,85.00
2018-04-18T22:33:51.480Z,86.20
2018-04-18T22:36:19.583Z,86.70
2018-04-18T22:38:47.770Z,88.50
2018-04-18T22:41:16.563Z,88.20
2018-04-18T22:43:44.691Z,88.10
2018-04-18T22:46:12.796Z,86.80
2018-04-18T22:48:40.897Z,84.80
2018-04-18T22:51:09.049Z,84.80
2018-04-18T22:53:37.174Z,84.60
2018-04-18T22:56:05.278Z,86.20
2018-04-18T22:58:33.415Z,87.50
2018-04-18T23:01:02.307Z,89.10
2018-04-18T23:03:30.444Z,89.10
2018-04-18T23:05:58.565Z,89.40
2018-04-18T23:08:26.673Z,90.10
2018-04-18T23:10:54.931Z,90.20
2018-04-18T23:13:23.319Z,90.40
2018-04-18T23:15:51.415Z,90.70
2018-04-18T23:18:19.601Z,91.10
2018-04-18T23:20:47.685Z,91.30
2018-04-18T23:23:15.836Z,91.50
2018-04-18T23:25:43.997Z,91.50
2018-04-18T23:28:12.862Z,90.60
2018-04-18T23:30:40.964Z,90.50
2018-04-18T23:33:09.831Z,90.30
2018-04-18T23:35:37.963Z,90.20
2018-04-18T23:38:06.813Z,90.50
2018-04-18T23:40:34.979Z,90.50
2018-04-18T23:43:03.085Z,90.70
2018-04-18T23:45:31.224Z,91.10
2018-04-18T23:48:00.065Z,91.30
2018-04-18T23:50:28.168Z,91.20
2018-04-18T23:52:56.298Z,91.60
2018-04-18T23:55:25.207Z,92.20
2018-04-18T23:57:53.369Z,92.10
